Time;durP1;ratioP1;P1;durP2;ratioP2;P2;SDS_P1;SDS_P2;PMS_P1;PMS_P2;Temp;Humidity;BMP_temperature;BMP_pressure;BME280_temperature;BME280_humidity;BME280_pressure;Samples;Min_cycle;Max_cycle;Signal;HPM_P1;HPM_P2
2022/06/16 00:04:46;;;;;;;4.43;1.20;;;;;;;18.25;100.00;98286.59;15277529;19;20429;-54
2022/06/16 00:15:38;;;;;;;5.28;1.13;;;;;;;18.14;100.00;98285.34;15268343;19;20015;-57
2022/06/16 00:20:47;;;;;;;3.60;1.30;;;;;;;18.10;100.00;98284.13;15270940;19;20006;-58
2022/06/16 00:25:52;;;;;;;5.50;1.27;;;;;;;18.00;100.00;98290.84;15272953;19;20002;-58
2022/06/16 00:31:03;;;;;;;2.35;1.10;;;;;;;17.93;100.00;98287.25;15271074;19;20014;-56
2022/06/16 00:36:12;;;;;;;2.20;1.15;;;;;;;17.89;100.00;98277.81;15272543;19;20014;-58
2022/06/16 00:41:17;;;;;;;4.93;1.30;;;;;;;17.77;100.00;98287.69;15267727;19;20724;-56
2022/06/16 00:46:23;;;;;;;1.40;1.02;;;;;;;17.65;100.00;98284.78;15269530;19;20415;-56
2022/06/16 00:51:35;;;;;;;4.28;1.30;;;;;;;17.58;100.00;98283.97;15272860;19;20456;-57
2022/06/16 00:56:40;;;;;;;2.45;1.30;;;;;;;17.41;100.00;98287.09;15268714;19;20599;-54
2022/06/16 01:01:47;;;;;;;1.75;1.30;;;;;;;17.28;100.00;98274.31;15273128;19;20017;-53
2022/06/16 01:06:55;;;;;;;2.65;1.30;;;;;;;17.12;100.00;98280.97;15273837;19;20024;-56
2022/06/16 01:17:39;;;;;;;2.58;1.30;;;;;;;16.81;100.00;98282.38;15271306;19;20114;-59
2022/06/16 01:23:30;;;;;;;3.80;1.35;;;;;;;16.65;100.00;98286.28;15272128;19;20088;-58
2022/06/16 01:29:09;;;;;;;2.33;1.33;;;;;;;16.55;100.00;98292.09;15266987;19;20025;-59
2022/06/16 01:34:23;;;;;;;4.65;1.25;;;;;;;16.40;100.00;98269.69;15273453;19;20078;-59
2022/06/16 01:39:35;;;;;;;5.18;1.70;;;;;;;16.24;100.00;98254.53;15288341;19;20413;-59
2022/06/16 01:44:47;;;;;;;3.53;1.45;;;;;;;16.15;100.00;98271.03;15277252;19;20883;-56
2022/06/16 01:49:58;;;;;;;2.30;1.30;;;;;;;16.11;100.00;98264.28;15279219;19;20751;-58
2022/06/16 01:55:10;;;;;;;2.60;1.50;;;;;;;16.05;100.00;98281.41;15282230;19;20036;-58
2022/06/16 02:00:22;;;;;;;3.13;1.50;;;;;;;16.05;100.00;98273.25;15275735;19;20047;-58
2022/06/16 02:05:41;;;;;;;4.18;1.60;;;;;;;16.08;100.00;98277.44;15285738;19;20010;-59
2022/06/16 02:10:51;;;;;;;2.70;1.30;;;;;;;16.07;100.00;98275.78;15284283;19;20007;-57
2022/06/16 02:16:06;;;;;;;2.67;1.30;;;;;;;16.07;100.00;98268.47;15269738;19;20058;-57
2022/06/16 02:21:18;;;;;;;2.40;1.08;;;;;;;16.09;100.00;98262.81;15280535;19;20015;-57
2022/06/16 02:26:23;;;;;;;2.17;1.40;;;;;;;16.09;100.00;98271.84;15282641;19;20360;-59
2022/06/16 02:31:48;;;;;;;3.58;1.55;;;;;;;16.19;100.00;98260.56;15278312;19;20023;-58
2022/06/16 02:37:04;;;;;;;2.63;1.50;;;;;;;16.25;100.00;98261.66;15283568;19;20093;-59
2022/06/16 02:42:21;;;;;;;2.22;1.30;;;;;;;16.26;100.00;98272.34;15282825;19;20014;-56
2022/06/16 02:47:47;;;;;;;3.05;1.80;;;;;;;16.18;100.00;98283.34;15269696;19;20010;-59
2022/06/16 02:53:02;;;;;;;3.38;1.40;;;;;;;15.77;100.00;98273.28;15278711;19;20022;-56
2022/06/16 02:58:12;;;;;;;4.22;1.40;;;;;;;15.82;100.00;98277.06;15281692;19;20102;-57
2022/06/16 03:03:26;;;;;;;2.15;1.40;;;;;;;15.77;100.00;98275.97;15273999;19;20014;-58
2022/06/16 03:08:44;;;;;;;;;;;;;;;15.70;100.00;98276.75;15283018;19;20022;-59
2022/06/16 03:13:51;;;;;;;3.78;1.50;;;;;;;15.56;100.00;98278.56;15274484;19;19997;-57
2022/06/16 03:19:10;;;;;;;3.28;1.40;;;;;;;15.59;100.00;98274.59;15274383;19;20018;-59
2022/06/16 03:24:20;;;;;;;3.72;1.75;;;;;;;15.46;100.00;98269.91;15275912;19;20043;-58
2022/06/16 03:29:26;;;;;;;1.90;1.55;;;;;;;15.53;100.00;98262.66;15280217;19;20054;-58
2022/06/16 03:34:35;;;;;;;2.53;1.52;;;;;;;15.56;100.00;98250.56;15270475;19;20396;-59
2022/06/16 03:39:40;;;;;;;2.70;1.65;;;;;;;15.59;100.00;98279.19;15278529;19;20042;-57
2022/06/16 03:44:48;;;;;;;3.33;1.60;;;;;;;15.45;100.00;98280.97;15280509;19;20019;-59
2022/06/16 03:49:58;;;;;;;3.97;1.60;;;;;;;15.54;100.00;98279.78;15277485;19;20028;-57
2022/06/16 03:55:13;;;;;;;3.90;1.50;;;;;;;15.58;100.00;98281.09;15268741;19;20046;-58
2022/06/16 04:00:21;;;;;;;2.92;1.55;;;;;;;15.65;100.00;98281.97;15275476;19;20034;-58
2022/06/16 04:05:36;;;;;;;3.08;1.60;;;;;;;15.69;100.00;98285.97;15276065;19;20006;-53
2022/06/16 04:10:48;;;;;;;1.77;1.30;;;;;;;15.78;100.00;98291.25;15266275;19;20014;-57
2022/06/16 04:15:54;;;;;;;3.00;1.55;;;;;;;15.88;100.00;98294.47;15263644;19;20019;-57
2022/06/16 04:21:03;;;;;;;3.63;1.55;;;;;;;15.96;100.00;98297.03;15262993;19;20392;-55
2022/06/16 04:26:24;;;;;;;2.55;1.08;;;;;;;16.08;100.00;98286.47;15260447;19;20479;-58
2022/06/16 04:31:32;;;;;;;5.22;1.40;;;;;;;16.16;100.00;98290.91;15271766;19;20482;-59
2022/06/16 04:36:40;;;;;;;3.42;1.42;;;;;;;16.12;100.00;98320.31;15274531;19;20018;-56
2022/06/16 04:41:50;;;;;;;3.63;1.58;;;;;;;16.06;100.00;98321.16;15269705;19;20015;-57
2022/06/16 04:46:57;;;;;;;4.15;1.50;;;;;;;16.09;100.00;98319.91;15272161;19;20054;-53
2022/06/16 04:52:08;;;;;;;4.57;1.35;;;;;;;16.23;100.00;98321.66;15273942;19;20026;-55
2022/06/16 04:57:15;;;;;;;4.40;1.45;;;;;;;16.40;100.00;98332.22;15263692;19;20010;-55
2022/06/16 05:02:46;;;;;;;3.95;1.60;;;;;;;16.55;100.00;98343.78;15272205;19;20015;-52
2022/06/16 05:08:14;;;;;;;2.92;1.42;;;;;;;16.73;100.00;98342.41;15274154;19;20022;-53
2022/06/16 05:13:30;;;;;;;2.75;1.50;;;;;;;16.84;100.00;98352.69;15277586;19;20018;-53
2022/06/16 05:19:04;;;;;;;2.53;1.20;;;;;;;16.92;100.00;98352.50;15285801;19;20031;-54
2022/06/16 05:24:40;;;;;;;3.40;1.48;;;;;;;16.93;100.00;98356.91;15288761;19;20018;-55
2022/06/16 05:30:11;;;;;;;3.10;1.20;;;;;;;17.11;100.00;98360.97;15283037;19;20036;-56
2022/06/16 05:35:19;;;;;;;3.50;1.30;;;;;;;17.18;100.00;98370.00;15284353;19;20344;-53
2022/06/16 05:40:48;;;;;;;5.15;1.30;;;;;;;17.25;100.00;98384.47;15284546;19;20018;-54
2022/06/16 05:46:19;;;;;;;4.77;1.20;;;;;;;17.40;100.00;98381.56;15279907;19;20027;-56
2022/06/16 05:51:36;;;;;;;2.47;1.02;;;;;;;17.56;100.00;98379.50;15283731;19;20306;-55
2022/06/16 05:56:46;;;;;;;2.42;1.10;;;;;;;17.64;100.00;98386.63;15286196;19;20014;-56
2022/06/16 06:16:25;;;;;;;4.93;1.30;;;;;;;17.61;100.00;98385.16;15285119;19;20020;-55
2022/06/16 06:18:25;;;;;;;2.92;1.10;;;;;;;17.59;100.00;98405.47;15279650;19;20484;-56
2022/06/16 06:23:31;;;;;;;3.85;1.40;;;;;;;17.74;100.00;98408.84;15277805;19;20475;-54
2022/06/16 06:28:38;;;;;;;7.05;1.20;;;;;;;18.00;100.00;98412.69;15284699;19;20027;-53
2022/06/16 06:33:43;;;;;;;4.53;1.10;;;;;;;18.11;100.00;98430.31;15274182;19;20010;-56
2022/06/16 06:38:49;;;;;;;3.15;1.20;;;;;;;18.13;100.00;98428.19;15284671;19;20485;-54
2022/06/16 06:43:59;;;;;;;2.78;1.00;;;;;;;18.23;100.00;98427.75;15281497;19;20010;-56
2022/06/16 06:49:04;;;;;;;4.38;1.05;;;;;;;18.27;100.00;98437.22;15279303;19;20022;-58
2022/06/16 06:54:13;;;;;;;1.83;1.08;;;;;;;18.30;100.00;98444.94;15280109;19;20016;-58
2022/06/16 06:59:22;;;;;;;3.72;1.10;;;;;;;18.60;100.00;98450.78;15282776;19;20423;-53
2022/06/16 07:04:28;;;;;;;5.18;1.20;;;;;;;18.61;100.00;98454.38;15274718;19;20043;-56
2022/06/16 07:09:33;;;;;;;3.03;1.05;;;;;;;18.45;100.00;98464.66;15282492;19;20022;-56
2022/06/16 07:14:42;;;;;;;4.00;1.05;;;;;;;18.47;100.00;98468.03;15280715;19;20577;-53
2022/06/16 07:19:47;;;;;;;3.50;1.23;;;;;;;18.42;100.00;98478.72;15281129;19;20018;-56
2022/06/16 07:24:52;;;;;;;2.70;1.20;;;;;;;18.48;100.00;98488.81;15280086;19;20029;-53
2022/06/16 07:30:01;;;;;;;1.92;1.00;;;;;;;18.62;100.00;98486.06;15283314;19;20111;-53
2022/06/16 07:35:07;;;;;;;3.75;1.15;;;;;;;18.58;100.00;98492.97;15278984;19;20021;-52
2022/06/16 07:40:14;;;;;;;4.95;1.27;;;;;;;18.76;100.00;98498.63;15275423;19;20010;-53
2022/06/16 07:45:22;;;;;;;2.75;1.08;;;;;;;18.88;100.00;98497.97;15280963;19;20018;-55
2022/06/16 07:50:33;;;;;;;4.18;1.20;;;;;;;18.96;100.00;98503.25;15281473;19;20014;-55
2022/06/16 07:55:38;;;;;;;6.53;1.30;;;;;;;19.01;100.00;98505.34;15270620;19;20010;-55
2022/06/16 08:00:46;;;;;;;4.35;1.20;;;;;;;19.18;100.00;98500.25;15276925;19;20025;-53
2022/06/16 08:05:51;;;;;;;2.92;1.13;;;;;;;19.29;100.00;98490.50;15281557;19;20014;-52
2022/06/16 08:10:57;;;;;;;2.70;1.00;;;;;;;19.38;100.00;98490.06;15270395;19;20006;-52
2022/06/16 08:16:04;;;;;;;3.35;1.13;;;;;;;19.65;100.00;98484.47;15273308;19;20399;-56
2022/06/16 08:21:10;;;;;;;3.35;1.17;;;;;;;19.82;100.00;98484.78;15275644;19;20649;-58
2022/06/16 08:26:15;;;;;;;2.35;1.10;;;;;;;19.88;100.00;98495.91;15274801;19;20026;-57
2022/06/16 08:31:24;;;;;;;6.00;1.30;;;;;;;20.12;100.00;98494.31;15276508;19;20045;-56
2022/06/16 08:36:29;;;;;;;2.05;0.90;;;;;;;20.38;100.00;98500.63;15278243;19;20018;-55
2022/06/16 08:41:47;;;;;;;4.88;1.10;;;;;;;20.54;100.00;98516.47;15271961;19;20037;-56
2022/06/16 08:47:05;;;;;;;3.70;1.20;;;;;;;20.73;100.00;98505.59;15277375;19;20035;-53
2022/06/16 08:52:22;;;;;;;2.72;1.10;;;;;;;20.87;100.00;98504.44;15275486;19;20018;-56
2022/06/16 08:57:38;;;;;;;4.38;1.05;;;;;;;20.93;100.00;98508.16;15271364;19;20014;-53
2022/06/16 09:02:53;;;;;;;4.68;1.02;;;;;;;21.01;97.37;98528.91;15273081;19;20486;-55
2022/06/16 09:08:11;;;;;;;3.25;1.10;;;;;;;21.35;98.82;98524.75;15277609;19;20025;-53
2022/06/16 09:13:44;;;;;;;4.40;1.10;;;;;;;21.46;86.49;98527.78;15266166;19;20014;-54
2022/06/16 09:19:20;;;;;;;4.03;1.10;;;;;;;21.58;86.09;98525.94;15274893;19;20485;-55
2022/06/16 09:24:43;;;;;;;2.85;1.10;;;;;;;21.61;88.28;98541.97;15268668;19;20021;-52
2022/06/16 09:29:54;;;;;;;3.78;1.13;;;;;;;21.85;82.01;98537.41;15270108;19;20025;-52
2022/06/16 09:35:04;;;;;;;1.95;1.02;;;;;;;22.05;83.86;98543.69;15271016;19;20022;-53
2022/06/16 09:40:18;;;;;;;2.53;1.07;;;;;;;21.76;90.12;98560.75;15273380;19;20031;-54
2022/06/16 09:45:29;;;;;;;4.57;1.10;;;;;;;21.38;87.86;98570.03;15272322;19;20613;-52
2022/06/16 09:50:44;;;;;;;3.42;1.30;;;;;;;21.62;91.76;98567.47;15272252;19;20006;-54
2022/06/16 09:55:57;;;;;;;2.42;1.05;;;;;;;21.91;95.32;98568.56;15274546;19;20018;-53
2022/06/16 10:01:08;;;;;;;5.30;0.98;;;;;;;21.53;97.32;98575.97;15287076;19;20022;-56
2022/06/16 10:06:26;;;;;;;3.43;1.20;;;;;;;21.35;96.04;98574.06;15285864;19;20017;-54
2022/06/16 10:11:45;;;;;;;2.45;1.10;;;;;;;21.63;93.42;98577.38;15284785;19;20019;-56
2022/06/16 10:16:55;;;;;;;2.72;1.10;;;;;;;21.26;92.77;98597.38;15287882;19;20034;-52
2022/06/16 10:22:01;;;;;;;2.47;1.10;;;;;;;21.42;95.31;98589.59;15276993;19;20089;-51
2022/06/16 10:27:11;;;;;;;4.65;1.10;;;;;;;21.35;93.93;98604.22;15286598;19;20014;-55
2022/06/16 10:32:19;;;;;;;3.60;1.23;;;;;;;21.25;92.98;98595.69;15282867;19;20046;-55
2022/06/16 10:37:27;;;;;;;2.83;1.10;;;;;;;21.30;100.00;98593.09;15284647;19;20039;-56
2022/06/16 10:42:48;;;;;;;5.57;1.10;;;;;;;21.39;95.56;98588.16;15281924;19;20412;-51
2022/06/16 10:47:56;;;;;;;4.35;1.20;;;;;;;21.67;98.33;98586.81;15285912;19;20006;-55
2022/06/16 10:53:06;;;;;;;6.30;1.20;;;;;;;21.72;99.35;98597.91;15275683;19;20015;-53
2022/06/16 10:58:27;;;;;;;4.05;1.40;;;;;;;21.99;98.45;98584.69;15285894;19;20099;-55
2022/06/16 11:03:37;;;;;;;3.40;1.40;;;;;;;22.01;98.96;98588.03;15280672;19;20109;-53
2022/06/16 11:08:48;;;;;;;4.28;1.20;;;;;;;21.99;91.15;98600.31;15279103;19;20010;-52
2022/06/16 11:13:58;;;;;;;4.80;1.20;;;;;;;22.20;87.92;98603.63;15279405;19;20018;-54
2022/06/16 11:19:11;;;;;;;3.13;1.20;;;;;;;22.23;84.37;98594.94;15284171;19;20011;-52
2022/06/16 11:24:26;;;;;;;3.35;1.10;;;;;;;22.26;78.43;98605.47;15271147;19;20648;-55
2022/06/16 11:29:37;;;;;;;3.08;1.00;;;;;;;22.14;81.20;98605.41;15282112;19;20593;-51
2022/06/16 11:34:44;;;;;;;2.53;1.10;;;;;;;22.32;82.07;98599.88;15280130;19;20006;-52
2022/06/16 11:40:04;;;;;;;3.20;1.13;;;;;;;22.29;83.87;98594.00;15275586;19;20028;-52
2022/06/16 11:45:22;;;;;;;5.18;1.15;;;;;;;22.68;75.26;98602.72;15281445;19;20023;-52
2022/06/16 11:50:36;;;;;;;4.80;1.23;;;;;;;22.49;75.54;98595.66;15279907;19;20353;-55
2022/06/16 11:55:46;;;;;;;2.75;1.08;;;;;;;22.76;77.09;98594.13;15271773;19;20015;-54
2022/06/16 12:01:00;;;;;;;3.38;1.23;;;;;;;22.88;76.57;98604.28;15280134;19;20378;-55
2022/06/16 12:06:20;;;;;;;1.75;1.00;;;;;;;23.18;76.74;98595.94;15278415;19;20010;-55
2022/06/16 12:11:31;;;;;;;2.28;1.00;;;;;;;23.20;66.08;98598.50;15274937;19;20014;-54
2022/06/16 12:17:05;;;;;;;2.75;1.05;;;;;;;23.28;57.95;98611.06;15276031;19;20363;-56
2022/06/16 12:22:17;;;;;;;3.47;0.98;;;;;;;23.50;59.89;98608.50;15277663;19;20014;-55
2022/06/16 12:27:28;;;;;;;4.10;1.00;;;;;;;23.76;61.96;98611.81;15273388;19;20014;-51
2022/06/16 12:32:48;;;;;;;2.65;1.20;;;;;;;23.63;59.04;98611.00;15276623;19;20014;-56
2022/06/16 12:37:58;;;;;;;5.18;1.02;;;;;;;23.91;60.09;98606.63;15278954;19;20017;-56
2022/06/16 12:43:07;;;;;;;4.13;1.00;;;;;;;24.05;58.42;98611.88;15271043;19;20018;-56
2022/06/16 12:48:18;;;;;;;3.72;1.10;;;;;;;24.30;59.63;98611.53;15277276;19;20014;-56
2022/06/16 12:53:29;;;;;;;5.13;1.00;;;;;;;24.60;59.42;98603.00;15273617;19;20031;-56
2022/06/16 12:58:37;;;;;;;1.83;0.87;;;;;;;24.74;56.33;98616.47;15275193;19;20046;-56
2022/06/16 13:03:52;;;;;;;3.15;1.00;;;;;;;25.34;54.91;98608.59;15268714;19;20371;-56
2022/06/16 13:09:03;;;;;;;7.63;1.20;;;;;;;24.79;52.87;98630.31;15273882;19;20014;-56
2022/06/16 13:14:13;;;;;;;3.53;0.80;;;;;;;24.89;52.30;98622.22;15274340;19;20018;-56
2022/06/16 13:19:23;;;;;;;1.90;0.90;;;;;;;24.75;49.41;98621.72;15271727;19;20010;-56
2022/06/16 13:24:42;;;;;;;2.53;0.80;;;;;;;25.03;50.79;98619.13;15269033;19;20022;-56
2022/06/16 13:30:13;;;;;;;3.90;0.88;;;;;;;24.88;50.56;98617.78;15275362;19;20569;-51
2022/06/16 13:35:49;;;;;;;2.58;1.00;;;;;;;25.42;50.75;98599.06;15280198;19;20376;-53
2022/06/16 13:41:24;;;;;;;1.77;0.80;;;;;;;25.57;48.13;98629.63;15287581;19;20011;-54
2022/06/16 13:46:29;;;;;;;2.35;0.88;;;;;;;25.45;45.49;98638.00;15288753;19;20474;-54
2022/06/16 13:51:42;;;;;;;4.13;0.95;;;;;;;25.47;45.26;98643.28;15280722;19;20038;-52
2022/06/16 13:56:49;;;;;;;6.55;1.00;;;;;;;25.91;46.83;98640.53;15282060;19;20014;-57
2022/06/16 14:02:09;;;;;;;2.28;0.77;;;;;;;26.15;45.29;98641.16;15286253;19;20021;-55
2022/06/16 14:07:19;;;;;;;2.47;0.80;;;;;;;25.92;43.68;98650.50;15280278;19;20363;-55
2022/06/16 14:12:50;;;;;;;4.10;1.00;;;;;;;26.27;44.43;98642.94;15282867;19;20034;-58
2022/06/16 14:18:18;;;;;;;2.25;0.85;;;;;;;26.44;43.85;98632.63;15280454;19;20033;-54
2022/06/16 14:23:42;;;;;;;1.50;0.80;;;;;;;26.47;44.16;98647.81;15274183;19;20015;-55
2022/06/16 14:28:50;;;;;;;2.35;0.70;;;;;;;26.41;44.89;98648.88;15286218;19;20034;-56
2022/06/16 14:34:02;;;;;;;2.30;0.80;;;;;;;26.81;45.08;98650.44;15281047;19;20025;-55
2022/06/16 14:39:14;;;;;;;2.08;0.70;;;;;;;26.97;44.89;98651.38;15279131;19;20018;-55
2022/06/16 14:44:24;;;;;;;0.90;0.70;;;;;;;26.42;44.97;98664.38;15277916;19;20014;-53
2022/06/16 14:49:38;;;;;;;1.20;0.60;;;;;;;27.54;44.31;98662.88;15285900;19;20010;-53
2022/06/16 14:54:52;;;;;;;2.28;0.95;;;;;;;27.48;43.00;98650.09;15278691;19;20015;-53
2022/06/16 14:59:59;;;;;;;1.92;0.90;;;;;;;27.29;43.48;98652.44;15285287;19;20050;-53
2022/06/16 15:05:11;;;;;;;2.80;0.90;;;;;;;26.28;44.67;98650.97;15284852;19;20788;-56
2022/06/16 15:10:30;;;;;;;2.65;0.98;;;;;;;26.36;43.21;98641.38;15275491;19;20018;-54
2022/06/16 15:15:37;;;;;;;1.80;0.75;;;;;;;26.31;43.13;98633.03;15278528;19;20465;-54
2022/06/16 15:20:48;;;;;;;1.42;0.77;;;;;;;26.21;42.88;98625.47;15284093;19;20351;-55
2022/06/16 15:25:58;;;;;;;1.90;0.77;;;;;;;26.75;42.60;98612.72;15278323;19;20384;-53
2022/06/16 15:31:13;;;;;;;2.00;0.80;;;;;;;26.71;41.97;98625.41;15281398;19;20088;-56
2022/06/16 15:36:23;;;;;;;3.53;0.80;;;;;;;27.68;41.00;98625.34;15277480;19;20006;-56
2022/06/16 15:41:38;;;;;;;2.83;0.60;;;;;;;27.76;40.73;98617.59;15272852;19;20021;-55
2022/06/16 15:46:47;;;;;;;1.83;0.55;;;;;;;27.15;41.00;98628.03;15280100;19;20018;-56
2022/06/16 15:51:52;;;;;;;1.83;0.70;;;;;;;27.36;40.96;98633.69;15278494;19;20002;-56
2022/06/16 15:57:04;;;;;;;2.90;0.70;;;;;;;28.23;38.88;98627.78;15272038;19;20010;-57
2022/06/16 16:02:09;;;;;;;4.20;0.70;;;;;;;27.13;40.88;98626.59;15277152;19;20014;-56
2022/06/16 16:07:17;;;;;;;1.00;0.60;;;;;;;26.43;40.51;98628.19;15281443;19;20075;-51
2022/06/16 16:12:27;;;;;;;1.95;0.68;;;;;;;26.63;39.62;98634.16;15269829;19;20026;-57
2022/06/16 16:17:55;;;;;;;4.45;0.82;;;;;;;26.94;38.14;98628.94;15276771;19;20038;-55
2022/06/16 16:23:02;;;;;;;1.38;0.50;;;;;;;26.74;38.48;98636.78;15275452;19;20042;-59
2022/06/16 16:28:21;;;;;;;1.45;0.60;;;;;;;27.20;37.58;98643.81;15276768;19;20034;-56
2022/06/16 16:33:30;;;;;;;1.15;0.60;;;;;;;26.83;38.13;98644.63;15270264;19;20013;-51
2022/06/16 16:38:43;;;;;;;4.65;0.60;;;;;;;27.27;37.09;98643.59;15275950;19;20019;-56
2022/06/16 16:43:54;;;;;;;1.98;0.60;;;;;;;27.48;37.16;98647.34;15274733;19;20010;-53
2022/06/16 16:49:01;;;;;;;1.40;0.77;;;;;;;26.98;37.13;98654.97;15271060;19;20035;-56
2022/06/16 16:54:13;;;;;;;1.33;0.60;;;;;;;26.88;37.76;98659.31;15272261;19;20034;-58
2022/06/16 16:59:25;;;;;;;1.75;0.60;;;;;;;27.01;37.38;98662.75;15276213;19;20013;-55
2022/06/16 17:04:30;;;;;;;1.25;0.60;;;;;;;26.86;38.00;98666.22;15263405;19;20011;-59
2022/06/16 17:10:03;;;;;;;2.63;0.70;;;;;;;26.53;38.13;98685.47;15278510;19;20608;-58
2022/06/16 17:15:13;;;;;;;3.58;0.50;;;;;;;26.28;38.75;98686.84;15275247;19;20344;-54
2022/06/16 17:20:22;;;;;;;1.83;0.70;;;;;;;25.68;39.61;98699.59;15273406;19;20384;-56
2022/06/16 17:25:27;;;;;;;2.47;0.70;;;;;;;25.18;40.76;98710.38;15276314;19;20482;-54
2022/06/16 17:30:40;;;;;;;1.45;0.60;;;;;;;24.66;41.33;98729.78;14765237;19;10001449;-57
2022/06/16 17:35:46;;;;;;;1.10;0.68;;;;;;;24.38;42.43;98717.69;15269702;19;20022;-58
2022/06/16 17:40:52;;;;;;;1.90;0.70;;;;;;;24.54;42.36;98727.91;15277311;19;20015;-57
2022/06/16 17:46:00;;;;;;;2.83;0.70;;;;;;;24.57;42.54;98732.94;15276794;19;20626;-56
2022/06/16 17:51:05;;;;;;;1.52;0.75;;;;;;;24.42;43.43;98727.97;15265684;19;20123;-57
2022/06/16 18:01:33;;;;;;;3.75;0.73;;;;;;;24.05;44.85;98749.50;15273678;19;20018;-59
2022/06/16 18:06:40;;;;;;;2.88;0.70;;;;;;;23.77;45.12;98757.34;15246497;19;20015;-54
2022/06/16 18:11:45;;;;;;;1.88;0.80;;;;;;;23.50;46.58;98751.50;15274474;19;20043;-58
2022/06/16 18:16:55;;;;;;;4.25;0.90;;;;;;;22.94;47.99;98754.47;15272349;19;20046;-59
2022/06/16 18:22:01;;;;;;;2.08;0.75;;;;;;;22.73;48.82;98759.41;15283453;19;20010;-57
2022/06/16 18:27:09;;;;;;;3.60;0.93;;;;;;;22.48;49.85;98756.78;15292606;19;20015;-59
2022/06/16 18:32:17;;;;;;;2.60;0.70;;;;;;;22.37;50.11;98758.38;15287908;19;20025;-56
2022/06/16 18:37:23;;;;;;;3.30;0.70;;;;;;;22.15;50.46;98747.88;15286456;19;20003;-52
2022/06/16 18:42:27;;;;;;;1.05;0.70;;;;;;;22.04;50.65;98745.88;15274267;19;20047;-53
2022/06/16 18:47:37;;;;;;;1.52;0.70;;;;;;;21.83;52.03;98753.47;15289594;19;20003;-59
2022/06/16 18:52:43;;;;;;;1.98;0.70;;;;;;;21.55;53.15;98745.69;15281179;19;20039;-54
2022/06/16 18:57:48;;;;;;;3.50;0.70;;;;;;;21.32;54.13;98749.91;15279274;19;20013;-57
2022/06/16 19:02:59;;;;;;;0.70;0.60;;;;;;;21.05;55.99;98754.75;15282357;19;20006;-55
2022/06/16 19:08:04;;;;;;;0.80;0.60;;;;;;;20.90;56.88;98753.16;15288960;19;20015;-57
2022/06/16 19:13:09;;;;;;;2.92;0.70;;;;;;;20.72;58.01;98758.50;15273328;19;20007;-77
2022/06/16 19:18:20;;;;;;;2.20;0.70;;;;;;;20.64;58.57;98757.69;15285573;19;20014;-78
2022/06/16 19:23:27;;;;;;;;;;;;;;;20.53;59.67;98763.84;15288418;19;20067;-77
2022/06/16 19:28:32;;;;;;;2.25;0.73;;;;;;;20.40;58.85;98770.25;15284546;19;19926;-79
2022/06/16 19:33:40;;;;;;;1.77;0.70;;;;;;;20.28;59.96;98775.56;15288788;19;20015;-77
2022/06/16 19:38:47;;;;;;;4.05;0.95;;;;;;;20.17;60.55;98781.69;15287939;19;20466;-77
2022/06/16 19:54:40;;;;;;;1.33;0.80;;;;;;;19.93;62.30;98821.50;15285724;19;20031;-77
2022/06/16 19:59:47;;;;;;;1.92;0.80;;;;;;;19.67;64.38;98840.44;15274529;19;20094;-76
2022/06/16 20:04:54;;;;;;;2.85;0.70;;;;;;;19.56;65.57;98847.34;15285146;19;20027;-76
2022/06/16 20:10:00;;;;;;;2.28;0.73;;;;;;;19.39;66.73;98837.91;15283504;19;20010;-76
2022/06/16 20:15:07;;;;;;;1.27;0.63;;;;;;;19.28;68.61;98849.44;15274162;19;20019;-77
2022/06/16 20:20:16;;;;;;;1.90;0.80;;;;;;;19.23;68.81;98847.28;15271794;19;20010;-77
2022/06/16 20:25:27;;;;;;;1.92;1.10;;;;;;;19.20;70.03;98832.16;15280991;19;20030;-77
2022/06/16 20:30:32;;;;;;;2.15;0.60;;;;;;;19.17;70.49;98842.69;15271923;19;20014;-77
2022/06/16 20:35:41;;;;;;;3.60;0.80;;;;;;;19.13;72.15;98849.59;15274062;19;20022;-77
2022/06/16 20:40:49;;;;;;;2.97;0.70;;;;;;;19.08;72.08;98848.34;15282215;19;20018;-76
2022/06/16 20:45:57;;;;;;;1.88;0.73;;;;;;;19.09;70.56;98852.75;15281269;19;20039;-77
2022/06/16 20:51:08;;;;;;;1.30;0.80;;;;;;;19.07;72.09;98856.72;15269898;19;20006;-77
2022/06/16 20:56:19;;;;;;;4.55;0.93;;;;;;;19.04;72.19;98866.19;15277573;19;20021;-77
2022/06/16 21:06:44;;;;;;;4.93;0.95;;;;;;;18.83;73.50;98875.31;15267628;19;20094;-76
2022/06/16 21:17:07;;;;;;;1.75;0.68;;;;;;;18.75;76.14;98890.00;15269382;19;20527;-77
2022/06/16 21:22:19;;;;;;;2.38;0.77;;;;;;;18.63;78.76;98897.06;15264163;19;20509;-75
2022/06/16 21:27:25;;;;;;;3.85;0.70;;;;;;;18.61;78.33;98904.59;15271868;19;20528;-74
2022/06/16 21:32:31;;;;;;;2.40;0.90;;;;;;;18.44;81.15;98915.84;15268119;19;20779;-76
2022/06/16 21:37:40;;;;;;;2.33;0.70;;;;;;;18.32;83.91;98929.19;15260815;19;20475;-75
2022/06/16 21:42:46;;;;;;;2.47;0.70;;;;;;;18.22;86.46;98941.50;15267093;19;21112;-76
2022/06/16 21:47:54;;;;;;;1.38;0.60;;;;;;;18.06;89.91;98934.44;15268600;19;20409;-77
2022/06/16 21:53:02;;;;;;;3.55;0.80;;;;;;;17.94;92.16;98943.13;15272833;19;20006;-76
2022/06/16 21:58:07;;;;;;;2.40;0.80;;;;;;;17.82;92.89;98948.25;15278680;19;20045;-77
2022/06/16 22:03:14;;;;;;;1.83;0.80;;;;;;;17.72;95.73;98955.91;15283204;19;20047;-76
2022/06/16 22:08:22;;;;;;;1.20;0.73;;;;;;;17.56;98.46;98966.06;15280252;19;20026;-76
2022/06/16 22:13:27;;;;;;;1.70;0.77;;;;;;;17.52;98.40;98972.91;15286740;19;20014;-77
2022/06/16 22:18:34;;;;;;;2.67;0.90;;;;;;;17.54;96.61;98987.19;15285976;19;20014;-77
2022/06/16 22:23:43;;;;;;;1.92;0.85;;;;;;;17.46;100.00;98994.63;15280365;19;20381;-78
2022/06/16 22:28:51;;;;;;;1.52;0.90;;;;;;;17.36;100.00;98990.34;15257241;19;20006;-77
2022/06/16 22:33:58;;;;;;;1.70;0.70;;;;;;;17.35;99.76;99009.56;15282885;19;20376;-77
2022/06/16 22:39:06;;;;;;;1.80;0.60;;;;;;;17.20;99.61;99017.78;15276720;19;20021;-77
2022/06/16 22:44:17;;;;;;;1.98;0.75;;;;;;;17.17;97.35;99024.44;15285353;19;20027;-77
2022/06/16 22:49:25;;;;;;;1.35;0.65;;;;;;;17.13;95.82;99028.56;15280325;19;20049;-77
2022/06/16 22:59:50;;;;;;;1.30;0.60;;;;;;;16.87;90.52;99045.34;15276537;19;20015;-77
2022/06/16 23:04:55;;;;;;;1.42;0.60;;;;;;;16.80;89.20;99047.97;15282992;19;20018;-76
2022/06/16 23:10:03;;;;;;;1.08;0.70;;;;;;;16.64;88.81;99041.66;15282676;19;20015;-77
2022/06/16 23:15:11;;;;;;;2.75;0.60;;;;;;;16.57;89.24;99020.84;15280502;19;20025;-76
2022/06/16 23:20:18;;;;;;;1.77;0.60;;;;;;;16.49;88.51;99021.78;15291360;19;20002;-76
2022/06/16 23:25:27;;;;;;;2.70;0.60;;;;;;;16.44;89.19;99016.03;15296227;19;20043;-77
2022/06/16 23:30:32;;;;;;;3.58;0.60;;;;;;;16.44;88.14;99030.50;15032121;19;5001534;-78
2022/06/16 23:35:37;;;;;;;2.30;0.57;;;;;;;16.44;87.52;99022.31;15288487;19;20026;-78
2022/06/16 23:40:44;;;;;;;2.15;0.60;;;;;;;16.43;96.52;99017.06;15305712;19;20745;-77
2022/06/16 23:45:50;;;;;;;1.67;0.70;;;;;;;16.28;100.00;99022.47;15274039;19;20353;-78
2022/06/16 23:50:58;;;;;;;1.40;0.70;;;;;;;16.09;100.00;99018.38;15277252;19;20022;-47
2022/06/16 23:56:09;;;;;;;2.30;0.60;;;;;;;15.98;100.00;99023.22;15280076;19;20399;-50
